createdAt,value
2018-09-11T00:01:12.987Z,4.47
2018-09-11T00:03:41.843Z,4.68
2018-09-11T00:06:10.675Z,4.72
2018-09-11T00:08:40.255Z,5.70
2018-09-11T00:11:09.094Z,4.75
2018-09-11T00:13:37.934Z,3.60
2018-09-11T00:16:06.771Z,4.72
2018-09-11T00:18:35.617Z,4.25
2018-09-11T00:21:04.471Z,4.87
2018-09-11T00:23:33.317Z,5.10
2018-09-11T00:26:02.911Z,3.72
2018-09-11T00:28:31.734Z,3.80
2018-09-11T00:31:00.578Z,6.05
2018-09-11T00:33:29.413Z,4.50
2018-09-11T00:35:58.350Z,4.22
2018-09-11T00:38:27.101Z,6.22
2018-09-11T00:40:55.929Z,6.37
2018-09-11T00:43:24.779Z,6.18
2018-09-11T00:45:53.628Z,4.87
2018-09-11T00:48:22.482Z,4.07
2018-09-11T00:50:51.322Z,5.45
2018-09-11T00:53:20.166Z,4.00
2018-09-11T00:55:49.018Z,4.20
2018-09-11T00:58:17.862Z,3.95
2018-09-11T01:00:46.692Z,4.37
2018-09-11T01:03:15.541Z,4.25
2018-09-11T01:05:44.389Z,4.82
2018-09-11T01:08:13.218Z,4.78
2018-09-11T01:10:42.086Z,5.25
2018-09-11T01:13:10.922Z,5.82
2018-09-11T01:15:40.508Z,4.47
2018-09-11T01:18:10.096Z,4.97
2018-09-11T01:20:38.930Z,4.70
2018-09-11T01:23:07.780Z,5.60
2018-09-11T01:25:36.618Z,5.45
2018-09-11T01:28:05.463Z,5.75
2018-09-11T01:30:34.312Z,4.65
2018-09-11T01:33:03.156Z,4.57
2018-09-11T01:35:32.731Z,6.18
2018-09-11T01:38:01.562Z,4.90
2018-09-11T01:40:31.146Z,4.30
2018-09-11T01:42:59.987Z,7.37
2018-09-11T01:45:28.830Z,5.53
2018-09-11T01:47:58.411Z,4.57
2018-09-11T01:50:27.247Z,5.87
2018-09-11T01:52:56.080Z,4.20
2018-09-11T01:55:24.914Z,4.50
2018-09-11T01:57:54.496Z,4.83
2018-09-11T02:00:23.387Z,4.90
2018-09-11T02:02:52.232Z,4.47
2018-09-11T02:05:21.065Z,6.50
2018-09-11T02:07:49.906Z,4.87
2018-09-11T02:10:18.755Z,5.17
2018-09-11T02:12:47.600Z,4.60
2018-09-11T02:15:16.439Z,6.18
2018-09-11T02:17:45.289Z,4.50
2018-09-11T02:20:14.136Z,5.82
2018-09-11T02:22:43.721Z,4.23
2018-09-11T02:25:13.142Z,5.33
2018-09-11T02:27:42.726Z,6.53
2018-09-11T02:30:12.313Z,4.50
2018-09-11T02:32:41.152Z,4.30
2018-09-11T02:35:10.741Z,5.10
2018-09-11T02:37:40.328Z,6.03
2018-09-11T02:40:09.754Z,4.30
2018-09-11T02:42:39.327Z,6.07
2018-09-11T02:45:08.188Z,5.68
2018-09-11T02:47:37.055Z,4.17
2018-09-11T02:50:05.905Z,8.03
2018-09-11T02:52:34.742Z,5.63
2018-09-11T02:55:03.589Z,6.60
2018-09-11T02:57:33.018Z,4.77
2018-09-11T03:00:01.862Z,5.10
2018-09-11T03:02:30.700Z,4.43
2018-09-11T03:04:59.539Z,5.77
2018-09-11T03:07:28.412Z,4.87
2018-09-11T03:09:57.247Z,7.73
2018-09-11T03:12:26.104Z,4.60
2018-09-11T03:14:54.930Z,5.60
2018-09-11T03:17:24.515Z,4.67
2018-09-11T03:19:53.356Z,5.47
2018-09-11T03:22:22.194Z,5.40
2018-09-11T03:24:51.040Z,5.93
2018-09-11T03:27:19.871Z,4.70
2018-09-11T03:29:48.724Z,4.43
2018-09-11T03:32:17.556Z,3.80
2018-09-11T03:34:46.393Z,4.77
2018-09-11T03:37:15.228Z,7.17
2018-09-11T03:39:44.077Z,6.73
2018-09-11T03:42:12.922Z,5.87
2018-09-11T03:44:42.521Z,5.93
2018-09-11T03:47:11.343Z,5.40
2018-09-11T03:49:40.183Z,5.10
2018-09-11T03:52:09.023Z,6.27
2018-09-11T03:54:37.872Z,6.80
2018-09-11T03:57:06.716Z,6.57
2018-09-11T03:59:35.559Z,4.80
2018-09-11T04:02:04.411Z,5.10
2018-09-11T04:04:33.252Z,5.23
2018-09-11T04:07:02.832Z,5.47
2018-09-11T04:09:31.673Z,5.65
2018-09-11T04:12:00.529Z,5.20
2018-09-11T04:14:29.379Z,6.10
2018-09-11T04:16:58.227Z,7.83
2018-09-11T04:19:27.068Z,5.60
2018-09-11T04:21:55.905Z,6.70
2018-09-11T04:24:25.492Z,5.20
2018-09-11T04:26:55.076Z,5.10
2018-09-11T04:29:23.908Z,5.10
2018-09-11T04:31:53.488Z,5.93
2018-09-11T04:34:22.375Z,10.37
2018-09-11T04:36:51.230Z,10.03
2018-09-11T04:39:20.076Z,9.30
2018-09-11T04:41:48.912Z,6.53
2018-09-11T04:44:17.751Z,7.10
2018-09-11T04:46:46.608Z,7.27
2018-09-11T04:49:15.453Z,8.75
2018-09-11T04:51:45.030Z,5.87
2018-09-11T04:54:13.873Z,5.00
2018-09-11T04:56:42.707Z,5.00
2018-09-11T04:59:11.557Z,8.30
2018-09-11T05:01:40.400Z,5.13
2018-09-11T05:04:09.276Z,7.70
2018-09-11T05:06:38.128Z,7.25
2018-09-11T05:09:06.964Z,8.60
2018-09-11T05:11:35.807Z,7.90
2018-09-11T05:14:04.680Z,6.60
2018-09-11T05:16:33.521Z,8.73
2018-09-11T05:19:02.372Z,6.40
2018-09-11T05:21:31.936Z,7.33
2018-09-11T05:24:00.946Z,7.57
2018-09-11T05:26:29.797Z,6.57
2018-09-11T05:28:58.636Z,6.93
2018-09-11T05:31:27.480Z,8.37
2018-09-11T05:33:56.321Z,8.93
2018-09-11T05:36:25.899Z,6.93
2018-09-11T05:38:54.825Z,8.25
2018-09-11T05:41:23.785Z,7.67
2018-09-11T05:43:52.682Z,8.10
2018-09-11T05:46:21.518Z,7.97
2018-09-11T05:48:50.374Z,6.23
2018-09-11T05:51:19.951Z,10.43
2018-09-11T05:53:48.806Z,7.97
2018-09-11T05:56:17.644Z,6.20
2018-09-11T05:58:46.491Z,6.20
2018-09-11T06:01:15.336Z,5.90
2018-09-11T06:03:44.183Z,7.87
2018-09-11T06:06:13.016Z,6.43
2018-09-11T06:08:42.612Z,8.20
2018-09-11T06:11:11.454Z,6.90
2018-09-11T06:13:40.389Z,7.07
2018-09-11T06:16:09.245Z,6.77
2018-09-11T06:18:38.121Z,5.90
2018-09-11T06:21:07.710Z,7.03
2018-09-11T06:23:36.557Z,6.83
2018-09-11T06:26:05.399Z,6.90
2018-09-11T06:28:34.244Z,5.40
2018-09-11T06:31:03.273Z,7.23
2018-09-11T06:33:32.102Z,5.63
2018-09-11T06:36:00.960Z,7.23
2018-09-11T06:38:29.806Z,6.03
2018-09-11T06:40:58.687Z,14.20
2018-09-11T06:43:27.497Z,9.43
2018-09-11T06:45:56.339Z,7.68
2018-09-11T06:48:25.919Z,8.77
2018-09-11T06:50:54.767Z,8.37
2018-09-11T06:53:23.612Z,8.40
2018-09-11T06:55:53.195Z,15.93
2018-09-11T06:58:22.031Z,9.83
2018-09-11T07:00:50.876Z,9.23
2018-09-11T07:03:19.716Z,9.27
2018-09-11T07:05:48.564Z,8.17
2018-09-11T07:08:17.405Z,7.40
2018-09-11T07:10:46.251Z,10.73
2018-09-11T07:13:15.864Z,9.47
2018-09-11T07:15:44.684Z,9.05
2018-09-11T07:18:13.522Z,8.20
2018-09-11T07:20:42.384Z,9.17
2018-09-11T07:23:11.223Z,9.18
2018-09-11T07:25:40.803Z,7.07
2018-09-11T07:28:10.390Z,8.13
2018-09-11T07:30:39.223Z,7.50
2018-09-11T07:33:08.814Z,11.30
2018-09-11T07:35:37.663Z,8.20
2018-09-11T07:38:06.516Z,8.98
2018-09-11T07:40:36.085Z,8.67
2018-09-11T07:43:04.922Z,8.63
2018-09-11T07:45:33.767Z,9.53
2018-09-11T07:48:02.573Z,7.20
2018-09-11T07:50:31.417Z,8.90
2018-09-11T07:53:00.280Z,7.30
2018-09-11T07:55:29.082Z,7.00
2018-09-11T07:57:57.911Z,6.63
2018-09-11T08:00:26.738Z,8.00
2018-09-11T08:02:55.608Z,10.67
2018-09-11T08:05:24.409Z,5.73
2018-09-11T08:07:53.251Z,11.00
2018-09-11T08:10:22.079Z,6.17
2018-09-11T08:12:51.666Z,5.33
2018-09-11T08:15:20.502Z,6.57
2018-09-11T08:17:49.343Z,7.47
2018-09-11T08:20:18.154Z,6.20
2018-09-11T08:22:47.731Z,6.23
2018-09-11T08:25:16.552Z,7.47
2018-09-11T08:27:46.133Z,6.00
2018-09-11T08:30:14.960Z,6.07
2018-09-11T08:32:43.816Z,6.67
2018-09-11T08:35:13.399Z,5.13
2018-09-11T08:37:42.248Z,5.90
2018-09-11T08:40:11.092Z,8.50
2018-09-11T08:42:39.933Z,5.20
2018-09-11T08:45:08.777Z,7.27
2018-09-11T08:47:37.628Z,6.90
2018-09-11T08:50:06.475Z,7.10
2018-09-11T08:52:36.167Z,8.50
2018-09-11T08:55:04.893Z,9.18
2018-09-11T08:57:33.733Z,8.90
2018-09-11T09:00:02.575Z,13.00
2018-09-11T09:02:31.404Z,5.30
2018-09-11T09:05:00.233Z,4.37
2018-09-11T09:07:29.823Z,5.47
2018-09-11T09:09:58.666Z,5.87
2018-09-11T09:12:27.493Z,4.45
2018-09-11T09:14:56.355Z,5.10
2018-09-11T09:17:25.196Z,5.50
2018-09-11T09:19:54.789Z,5.22
2018-09-11T09:22:23.626Z,7.28
2018-09-11T09:24:52.459Z,6.43
2018-09-11T09:27:21.325Z,6.18
2018-09-11T09:29:50.156Z,7.53
2018-09-11T09:32:19.757Z,4.15
2018-09-11T09:34:48.585Z,4.07
2018-09-11T09:37:18.150Z,3.97
2018-09-11T09:39:46.995Z,5.43
2018-09-11T09:42:15.834Z,4.05
2018-09-11T09:44:45.408Z,5.60
2018-09-11T09:47:14.244Z,3.05
2018-09-11T09:49:43.092Z,4.15
2018-09-11T09:52:11.923Z,3.50
2018-09-11T09:54:40.759Z,4.65
2018-09-11T09:57:09.609Z,4.90
2018-09-11T09:59:38.443Z,4.03
2018-09-11T10:02:07.736Z,4.43
2018-09-11T10:04:36.679Z,3.92
2018-09-11T10:07:06.138Z,4.37
2018-09-11T10:09:35.029Z,3.53
2018-09-11T10:12:03.831Z,2.80
2018-09-11T10:14:32.677Z,3.70
2018-09-11T10:17:01.516Z,5.22
2018-09-11T10:19:30.361Z,4.20
2018-09-11T10:21:59.186Z,4.35
2018-09-11T10:24:28.050Z,3.35
2018-09-11T10:26:57.154Z,3.37
2018-09-11T10:29:26.463Z,2.30
2018-09-11T10:31:55.288Z,4.00
2018-09-11T10:34:24.128Z,3.03
2018-09-11T10:36:52.970Z,3.60
2018-09-11T10:39:21.853Z,3.00
2018-09-11T10:41:50.636Z,2.97
2018-09-11T10:44:20.218Z,2.25
2018-09-11T10:46:49.054Z,3.42
2018-09-11T10:49:17.900Z,5.22
2018-09-11T10:51:46.759Z,3.25
2018-09-11T10:54:15.579Z,5.32
2018-09-11T10:56:44.435Z,3.80
2018-09-11T10:59:13.264Z,2.50
2018-09-11T11:01:42.115Z,3.40
2018-09-11T11:04:10.944Z,3.28
2018-09-11T11:06:39.781Z,2.72
2018-09-11T11:09:08.639Z,2.85
2018-09-11T11:11:37.454Z,2.60
2018-09-11T11:14:06.350Z,3.05
2018-09-11T11:16:35.137Z,2.78
2018-09-11T11:19:03.963Z,2.67
2018-09-11T11:21:32.787Z,5.43
2018-09-11T11:24:01.635Z,2.40
2018-09-11T11:26:30.465Z,2.62
2018-09-11T11:29:00.049Z,3.62
2018-09-11T11:31:28.900Z,5.07
2018-09-11T11:33:57.736Z,2.45
2018-09-11T11:36:27.423Z,2.85
2018-09-11T11:38:56.160Z,4.05
2018-09-11T11:41:25.002Z,2.62
2018-09-11T11:43:53.845Z,3.03
2018-09-11T11:46:22.679Z,4.62
2018-09-11T11:48:51.518Z,3.90
2018-09-11T11:51:20.362Z,2.42
2018-09-11T11:53:49.213Z,12.18
2018-09-11T11:56:18.053Z,3.25
2018-09-11T11:58:46.909Z,3.28
2018-09-11T12:01:15.750Z,3.67
2018-09-11T12:03:44.608Z,3.97
2018-09-11T12:06:13.463Z,3.65
2018-09-11T12:08:42.302Z,3.42
2018-09-11T12:11:11.892Z,2.83
2018-09-11T12:13:40.769Z,4.75
2018-09-11T12:16:09.669Z,3.97
2018-09-11T12:18:38.466Z,3.50
2018-09-11T12:21:07.298Z,6.15
2018-09-11T12:23:36.130Z,3.97
2018-09-11T12:26:04.991Z,4.20
2018-09-11T12:28:33.804Z,3.33
2018-09-11T12:31:02.652Z,2.47
2018-09-11T12:33:31.485Z,3.03
2018-09-11T12:36:00.324Z,3.90
2018-09-11T12:38:29.169Z,2.53
2018-09-11T12:40:58.008Z,2.47
2018-09-11T12:43:26.854Z,5.55
2018-09-11T12:45:55.751Z,5.18
2018-09-11T12:48:24.823Z,3.15
2018-09-11T12:50:53.351Z,5.57
2018-09-11T12:53:22.184Z,3.67
2018-09-11T12:55:51.025Z,3.45
2018-09-11T12:58:19.868Z,3.90
2018-09-11T13:00:48.704Z,3.97
2018-09-11T13:03:17.546Z,3.12
2018-09-11T13:05:46.387Z,4.03
2018-09-11T13:08:15.223Z,5.28
2018-09-11T13:10:44.065Z,3.17
2018-09-11T13:13:12.900Z,3.55
2018-09-11T13:15:41.756Z,3.28
2018-09-11T13:18:10.584Z,2.78
2018-09-11T13:20:39.415Z,3.62
2018-09-11T13:23:08.252Z,2.80
2018-09-11T13:25:37.084Z,2.25
2018-09-11T13:28:06.655Z,2.78
2018-09-11T13:30:35.533Z,2.37
2018-09-11T13:33:04.358Z,5.65
2018-09-11T13:35:33.216Z,3.35
2018-09-11T13:38:02.051Z,2.60
2018-09-11T13:40:30.892Z,3.20
2018-09-11T13:42:59.750Z,3.03
2018-09-11T13:45:28.582Z,2.58
2018-09-11T13:47:57.472Z,3.58
2018-09-11T13:50:26.270Z,4.18
2018-09-11T13:52:55.133Z,3.12
2018-09-11T13:55:23.938Z,3.55
2018-09-11T13:57:52.768Z,4.22
2018-09-11T14:00:21.598Z,3.17
2018-09-11T14:02:50.431Z,4.65
2018-09-11T14:05:19.275Z,3.65
2018-09-11T14:07:48.120Z,2.15
2018-09-11T14:10:17.684Z,3.35
2018-09-11T14:12:46.518Z,2.65
2018-09-11T14:15:15.366Z,4.68
2018-09-11T14:17:44.193Z,3.60
2018-09-11T14:20:13.031Z,3.25
2018-09-11T14:22:41.867Z,4.95
2018-09-11T14:25:10.722Z,4.35
2018-09-11T14:27:39.564Z,3.20
2018-09-11T14:30:08.401Z,3.05
2018-09-11T14:32:37.226Z,4.95
2018-09-11T14:35:06.081Z,4.22
2018-09-11T14:37:34.942Z,3.45
2018-09-11T14:40:03.786Z,3.97
2018-09-11T14:42:33.377Z,4.00
2018-09-11T14:45:02.217Z,5.05
2018-09-11T14:47:31.074Z,2.60
2018-09-11T14:50:00.661Z,2.62
2018-09-11T14:52:29.523Z,3.05
2018-09-11T14:54:58.315Z,4.75
2018-09-11T14:57:27.213Z,4.37
2018-09-11T14:59:55.992Z,4.75
2018-09-11T15:02:24.828Z,5.47
2018-09-11T15:04:53.679Z,4.53
2018-09-11T15:07:22.502Z,3.33
2018-09-11T15:09:52.081Z,4.40
2018-09-11T15:12:20.915Z,4.43
2018-09-11T15:14:49.755Z,2.25
2018-09-11T15:17:18.582Z,4.07
2018-09-11T15:19:48.170Z,3.00
2018-09-11T15:22:17.017Z,3.45
2018-09-11T15:24:45.848Z,2.97
2018-09-11T15:27:14.723Z,1.92
2018-09-11T15:29:43.601Z,3.83
2018-09-11T15:32:12.412Z,2.97
2018-09-11T15:34:41.254Z,3.20
2018-09-11T15:37:10.097Z,4.32
2018-09-11T15:39:38.950Z,4.47
2018-09-11T15:42:07.790Z,3.65
2018-09-11T15:44:36.616Z,5.70
2018-09-11T15:47:05.472Z,3.22
2018-09-11T15:49:34.289Z,3.78
2018-09-11T15:52:03.117Z,2.90
2018-09-11T15:54:31.989Z,3.22
2018-09-11T15:57:00.024Z,4.80
2018-09-11T15:59:28.856Z,2.97
2018-09-11T16:01:57.757Z,3.85
2018-09-11T16:04:26.559Z,2.92
2018-09-11T16:06:55.466Z,4.85
2018-09-11T16:09:24.986Z,2.60
2018-09-11T16:11:53.830Z,7.30
2018-09-11T16:14:22.668Z,2.45
2018-09-11T16:16:51.500Z,3.25
2018-09-11T16:19:20.351Z,3.20
2018-09-11T16:21:49.206Z,4.35
2018-09-11T16:24:18.035Z,5.28
2018-09-11T16:26:46.878Z,5.10
2018-09-11T16:29:15.722Z,4.37
2018-09-11T16:31:45.296Z,4.47
2018-09-11T16:34:14.204Z,4.20
2018-09-11T16:36:42.971Z,3.35
2018-09-11T16:39:11.813Z,4.53
2018-09-11T16:41:40.644Z,3.47
2018-09-11T16:44:09.475Z,4.62
2018-09-11T16:46:38.343Z,3.37
2018-09-11T16:49:07.167Z,2.97
2018-09-11T16:51:36.002Z,5.22
2018-09-11T16:54:04.834Z,3.87
2018-09-11T16:56:33.690Z,4.05
2018-09-11T16:59:02.525Z,6.75
2018-09-11T17:01:31.393Z,4.70
2018-09-11T17:04:01.083Z,4.22
2018-09-11T17:06:29.808Z,3.33
2018-09-11T17:08:58.649Z,4.50
2018-09-11T17:11:27.486Z,4.15
2018-09-11T17:13:56.349Z,5.05
2018-09-11T17:16:25.934Z,4.72
2018-09-11T17:18:54.771Z,6.00
2018-09-11T17:21:23.608Z,4.80
2018-09-11T17:24:05.168Z,5.53
2018-09-11T17:26:34.016Z,5.07
2018-09-11T17:29:03.627Z,4.95
2018-09-11T17:31:33.205Z,3.80
2018-09-11T17:34:02.063Z,5.13
2018-09-11T17:36:30.905Z,4.75
2018-09-11T17:38:59.762Z,5.65
2018-09-11T17:41:28.612Z,6.57
2018-09-11T17:43:57.559Z,8.02
2018-09-11T17:46:26.415Z,6.07
2018-09-11T17:48:55.289Z,6.93
2018-09-11T17:51:24.823Z,5.07
2018-09-11T17:53:53.659Z,4.68
2018-09-11T17:56:57.665Z,4.72
2018-09-11T17:59:26.483Z,6.30
2018-09-11T18:01:55.329Z,6.80
2018-09-11T18:04:24.489Z,5.18
2018-09-11T18:06:53.214Z,4.72
2018-09-11T18:09:22.051Z,6.50
2018-09-11T18:11:50.875Z,7.90
2018-09-11T18:14:19.723Z,5.18
2018-09-11T18:16:49.301Z,4.60
2018-09-11T18:19:18.155Z,4.20
2018-09-11T18:21:46.990Z,6.95
2018-09-11T18:24:16.567Z,3.65
2018-09-11T18:26:46.001Z,4.95
2018-09-11T18:29:15.611Z,8.55
2018-09-11T18:31:45.208Z,6.62
2018-09-11T18:34:14.773Z,8.15
2018-09-11T18:36:43.682Z,6.07
2018-09-11T18:39:12.480Z,7.07
2018-09-11T18:41:41.338Z,6.97
2018-09-11T18:44:10.173Z,5.40
2018-09-11T18:46:39.021Z,5.05
2018-09-11T18:49:07.855Z,7.22
2018-09-11T18:51:37.497Z,7.30
2018-09-11T18:54:07.048Z,4.35
2018-09-11T18:56:35.928Z,5.10
2018-09-11T18:59:04.786Z,7.20
2018-09-11T19:01:33.560Z,7.62
2018-09-11T19:04:02.491Z,7.00
2018-09-11T19:06:31.331Z,5.20
2018-09-11T19:09:00.167Z,5.45
2018-09-11T19:11:29.015Z,6.32
2018-09-11T19:13:57.851Z,6.05
2018-09-11T19:16:26.696Z,4.30
2018-09-11T19:18:55.543Z,5.65
2018-09-11T19:21:24.377Z,6.95
2018-09-11T19:23:53.221Z,5.55
2018-09-11T19:26:22.088Z,6.40
2018-09-11T19:28:51.011Z,7.32
2018-09-11T19:31:19.745Z,4.43
2018-09-11T19:33:48.638Z,5.87
2018-09-11T19:36:18.162Z,4.90
2018-09-11T19:38:47.009Z,4.90
2018-09-11T19:41:15.858Z,7.12
2018-09-11T19:43:44.692Z,4.27
2018-09-11T19:46:13.533Z,4.70
2018-09-11T19:48:42.363Z,3.35
2018-09-11T19:51:11.208Z,4.18
2018-09-11T19:53:40.041Z,5.72
2018-09-11T19:56:08.928Z,5.60
2018-09-11T19:58:38.531Z,4.90
2018-09-11T20:01:07.389Z,5.00
2018-09-11T20:03:36.203Z,7.35
2018-09-11T20:06:05.026Z,7.32
2018-09-11T20:08:33.867Z,6.82
2018-09-11T20:11:02.712Z,6.68
2018-09-11T20:13:31.551Z,8.15
2018-09-11T20:16:00.393Z,8.60
2018-09-11T20:18:29.223Z,5.10
2018-09-11T20:20:58.062Z,3.97
2018-09-11T20:23:26.901Z,6.25
2018-09-11T20:25:55.739Z,5.93
2018-09-11T20:28:24.591Z,7.50
2018-09-11T20:30:53.442Z,8.20
2018-09-11T20:33:22.280Z,4.20
2018-09-11T20:35:51.120Z,6.22
2018-09-11T20:38:19.970Z,7.05
2018-09-11T20:40:49.681Z,4.00
2018-09-11T20:43:18.398Z,4.47
2018-09-11T20:45:47.232Z,4.55
2018-09-11T20:48:16.078Z,6.32
2018-09-11T20:50:45.454Z,3.78
2018-09-11T20:53:14.291Z,5.07
2018-09-11T20:55:43.135Z,7.20
2018-09-11T20:58:12.742Z,6.97
2018-09-11T21:00:41.551Z,6.57
2018-09-11T21:03:10.380Z,5.35
2018-09-11T21:05:39.220Z,5.95
2018-09-11T21:08:08.092Z,5.87
2018-09-11T21:10:36.942Z,4.95
2018-09-11T21:13:06.165Z,6.68
2018-09-11T21:15:35.018Z,6.93
2018-09-11T21:18:03.866Z,5.15
2018-09-11T21:20:32.714Z,6.20
2018-09-11T21:23:01.550Z,5.03
2018-09-11T21:25:30.402Z,4.25
2018-09-11T21:27:59.227Z,5.00
2018-09-11T21:30:28.229Z,8.10
2018-09-11T21:32:57.104Z,6.45
2018-09-11T21:35:25.965Z,7.95
2018-09-11T21:37:54.820Z,5.62
2018-09-11T21:40:23.682Z,5.93
2018-09-11T21:42:52.522Z,6.45
2018-09-11T21:45:21.356Z,4.65
2018-09-11T21:47:50.195Z,6.53
2018-09-11T21:50:19.852Z,6.62
2018-09-11T21:52:48.672Z,6.97
2018-09-11T21:55:17.554Z,6.15
2018-09-11T21:57:46.387Z,4.68
2018-09-11T22:00:15.276Z,5.15
2018-09-11T22:02:44.073Z,6.43
2018-09-11T22:05:13.649Z,4.70
2018-09-11T22:07:42.489Z,6.07
2018-09-11T22:10:11.327Z,7.07
2018-09-11T22:12:40.745Z,4.53
2018-09-11T22:15:10.338Z,5.17
2018-09-11T22:17:39.177Z,6.35
2018-09-11T22:20:08.023Z,5.55
2018-09-11T22:22:36.874Z,7.37
2018-09-11T22:25:05.709Z,4.72
2018-09-11T22:27:35.493Z,5.28
2018-09-11T22:30:04.332Z,7.18
2018-09-11T22:32:33.173Z,7.60
2018-09-11T22:35:02.025Z,6.87
2018-09-11T22:37:30.840Z,5.22
2018-09-11T22:39:59.691Z,5.80
2018-09-11T22:42:28.527Z,6.57
2018-09-11T22:44:57.352Z,6.05
2018-09-11T22:47:26.920Z,5.80
2018-09-11T22:49:55.760Z,5.18
2018-09-11T22:52:24.595Z,6.43
2018-09-11T22:54:53.423Z,5.78
2018-09-11T22:57:22.259Z,5.72
2018-09-11T22:59:51.100Z,6.72
2018-09-11T23:02:20.682Z,6.15
2018-09-11T23:04:49.537Z,5.93
2018-09-11T23:07:18.370Z,5.43
2018-09-11T23:09:47.218Z,4.50
2018-09-11T23:12:16.054Z,7.28
2018-09-11T23:14:45.474Z,5.22
2018-09-11T23:17:14.315Z,9.07
2018-09-11T23:19:43.149Z,7.22
2018-09-11T23:22:12.732Z,5.80
2018-09-11T23:24:42.444Z,7.85
2018-09-11T23:27:11.007Z,7.55
2018-09-11T23:29:39.854Z,7.80
2018-09-11T23:32:09.427Z,8.00
2018-09-11T23:34:38.270Z,5.10
2018-09-11T23:37:07.099Z,8.00
2018-09-11T23:39:35.951Z,6.93
2018-09-11T23:42:04.783Z,5.85
2018-09-11T23:44:33.622Z,4.97
2018-09-11T23:47:02.441Z,6.82
2018-09-11T23:49:31.350Z,5.82
2018-09-11T23:52:00.197Z,6.62
2018-09-11T23:54:29.028Z,5.72
2018-09-11T23:56:57.858Z,4.50
2018-09-11T23:59:26.695Z,6.20
